Time;durP1;ratioP1;P1;durP2;ratioP2;P2;SDS_P1;SDS_P2;PMS_P1;PMS_P2;Temp;Humidity;BMP_temperature;BMP_pressure;BME280_temperature;BME280_humidity;BME280_pressure;Samples;Min_cycle;Max_cycle;Signal;HPM_P1;HPM_P2
2022/05/25 00:01:37;;;;;;;4.88;1.80;;;11.40;99.90;;;;;;4891534;29;20039;-59
2022/05/25 00:04:04;;;;;;;6.35;2.00;;;11.40;99.90;;;;;;4889031;29;20073;-59
2022/05/25 00:06:30;;;;;;;5.40;1.85;;;11.30;99.90;;;;;;4891808;29;20059;-59
2022/05/25 00:08:56;;;;;;;6.78;2.15;;;11.40;99.90;;;;;;4891003;29;20020;-59
2022/05/25 00:11:21;;;;;;;5.53;2.10;;;11.30;99.90;;;;;;4891711;29;20040;-59
2022/05/25 00:13:47;;;;;;;7.32;1.90;;;11.20;99.90;;;;;;4891509;29;20039;-59
2022/05/25 00:16:13;;;;;;;5.40;1.90;;;11.30;99.90;;;;;;4890924;29;20036;-60
2022/05/25 00:19:58;;;;;;;5.57;1.90;;;11.30;99.90;;;;;;4892343;29;20036;-60
2022/05/25 00:21:28;;;;;;;6.00;2.22;;;11.30;99.90;;;;;;4891154;29;20033;-60
2022/05/25 00:23:53;;;;;;;8.90;2.10;;;11.30;99.90;;;;;;4892721;29;20033;-60
2022/05/25 00:26:19;;;;;;;7.85;2.30;;;11.30;99.90;;;;;;4894310;29;20387;-59
2022/05/25 00:28:45;;;;;;;6.35;2.30;;;11.30;99.90;;;;;;4891732;29;20040;-59
2022/05/25 00:31:11;;;;;;;8.30;2.88;;;11.30;99.90;;;;;;4890706;29;20536;-59
2022/05/25 00:33:37;;;;;;;7.90;2.72;;;11.30;99.90;;;;;;4890907;29;20485;-59
2022/05/25 00:36:03;;;;;;;8.00;2.30;;;11.30;99.90;;;;;;4891086;29;20043;-59
2022/05/25 00:38:29;;;;;;;5.80;2.35;;;11.10;99.90;;;;;;4891478;29;20040;-60
2022/05/25 00:40:57;;;;;;;5.13;2.00;;;11.00;99.90;;;;;;4890495;29;20066;-59
2022/05/25 00:43:23;;;;;;;6.75;2.45;;;10.80;99.90;;;;;;4891297;29;20032;-60
2022/05/25 00:45:51;;;;;;;6.38;2.53;;;10.70;99.90;;;;;;4874090;29;20116;-59
2022/05/25 00:48:41;;;;;;;6.90;2.30;;;10.70;99.90;;;;;;4890311;29;20035;-59
2022/05/25 00:51:13;;;;;;;6.30;2.50;;;10.50;99.90;;;;;;4888171;29;20076;-60
2022/05/25 00:53:48;;;;;;;7.68;2.67;;;10.50;99.90;;;;;;4887612;29;20033;-59
2022/05/25 00:56:18;;;;;;;7.28;2.45;;;10.40;99.90;;;;;;4887908;29;20499;-59
2022/05/25 00:58:51;;;;;;;10.80;2.80;;;10.30;99.90;;;;;;4891024;29;20036;-60
2022/05/25 01:01:17;;;;;;;7.53;2.60;;;10.30;99.90;;;;;;4890684;29;20047;-60
2022/05/25 01:03:43;;;;;;;9.52;2.55;;;10.20;99.90;;;;;;4889464;29;20060;-60
2022/05/25 01:06:29;;;;;;;7.15;2.83;;;10.20;99.90;;;;;;4893334;29;20370;-59
2022/05/25 01:09:12;;;;;;;7.30;2.65;;;10.10;99.90;;;;;;4888649;29;20380;-59
2022/05/25 01:11:52;;;;;;;7.95;2.55;;;10.10;99.90;;;;;;4894281;29;20033;-59
2022/05/25 01:14:38;;;;;;;6.72;2.92;;;10.00;99.90;;;;;;4893411;29;20028;-60
2022/05/25 01:17:31;;;;;;;8.80;2.90;;;10.20;99.90;;;;;;4894442;29;20024;-60
2022/05/25 01:20:14;;;;;;;9.27;2.88;;;9.90;99.90;;;;;;4891472;29;20035;-59
2022/05/25 01:23:18;;;;;;;8.15;3.05;;;10.20;99.90;;;;;;4892260;29;20112;-59
2022/05/25 01:26:15;;;;;;;6.70;2.67;;;10.60;99.90;;;;;;4892361;29;20059;-59
2022/05/25 01:29:08;;;;;;;8.50;3.17;;;10.60;99.90;;;;;;4894709;29;20040;-59
2022/05/25 01:32:09;;;;;;;8.77;2.85;;;10.70;99.90;;;;;;4890930;29;20088;-59
2022/05/25 01:34:42;;;;;;;6.45;2.67;;;10.70;99.90;;;;;;4877605;29;20116;-59
2022/05/25 01:37:24;;;;;;;7.53;2.80;;;10.90;99.90;;;;;;4894297;29;20437;-59
2022/05/25 01:40:24;;;;;;;10.05;3.13;;;10.70;99.90;;;;;;4891513;29;20035;-59
2022/05/25 01:43:03;;;;;;;8.88;3.10;;;10.90;99.90;;;;;;4892341;29;20020;-60
2022/05/25 01:45:33;;;;;;;7.88;2.72;;;10.80;99.90;;;;;;4893454;29;20039;-59
2022/05/25 01:48:03;;;;;;;;;;;10.90;99.90;;;;;;4896745;29;20362;-59
2022/05/25 01:50:44;;;;;;;7.72;2.60;;;10.90;99.90;;;;;;4894820;29;20261;-59
2022/05/25 01:53:11;;;;;;;;;;;10.90;99.90;;;;;;4891298;29;20037;-59
2022/05/25 01:55:45;;;;;;;9.02;3.05;;;10.90;99.90;;;;;;4895728;29;19916;-59
2022/05/25 01:58:14;;;;;;;7.57;2.53;;;10.90;99.90;;;;;;4893435;29;20060;-60
2022/05/25 02:00:43;;;;;;;8.30;3.10;;;10.90;99.90;;;;;;4892992;29;20051;-60
2022/05/25 02:06:20;;;;;;;9.50;3.33;;;10.70;99.90;;;;;;4879954;29;20051;-59
2022/05/25 02:09:15;;;;;;;;;;;10.60;99.90;;;;;;4891285;29;20531;-59
2022/05/25 02:11:47;;;;;;;9.25;3.08;;;10.50;99.90;;;;;;4882148;29;20287;-59
2022/05/25 02:14:31;;;;;;;9.10;3.05;;;10.40;99.90;;;;;;4893263;29;20394;-60
2022/05/25 02:17:15;;;;;;;10.27;3.58;;;10.50;99.90;;;;;;4892449;29;20028;-59
2022/05/25 02:20:02;;;;;;;7.47;3.17;;;10.40;99.90;;;;;;4891312;29;20164;-59
2022/05/25 02:22:40;;;;;;;9.32;3.30;;;10.30;99.90;;;;;;4889555;29;20164;-60
2022/05/25 02:25:15;;;;;;;10.43;3.60;;;10.20;99.90;;;;;;4894373;29;20465;-60
2022/05/25 02:27:56;;;;;;;9.82;3.13;;;10.10;99.90;;;;;;4892587;29;20050;-59
2022/05/25 02:30:24;;;;;;;7.50;2.85;;;9.90;99.90;;;;;;4893506;29;20033;-60
2022/05/25 02:32:57;;;;;;;9.45;3.70;;;9.80;99.90;;;;;;4891399;29;20037;-60
2022/05/25 02:35:25;;;;;;;8.43;3.40;;;9.80;99.90;;;;;;4893907;29;20029;-59
2022/05/25 02:37:52;;;;;;;9.93;3.92;;;9.80;99.90;;;;;;4893665;29;20043;-60
2022/05/25 02:40:18;;;;;;;7.53;3.00;;;9.70;99.90;;;;;;4892919;29;20499;-59
2022/05/25 02:42:44;;;;;;;9.50;3.30;;;9.80;99.90;;;;;;4893339;29;20060;-59
2022/05/25 02:45:11;;;;;;;8.70;3.20;;;9.50;99.90;;;;;;4893154;29;20068;-59
2022/05/25 02:47:37;;;;;;;9.75;3.40;;;9.30;99.90;;;;;;4893115;29;20234;-59
2022/05/25 02:50:04;;;;;;;9.32;3.55;;;9.20;99.90;;;;;;4883698;29;20036;-59
2022/05/25 02:52:30;;;;;;;9.48;3.47;;;9.00;99.90;;;;;;4892895;29;20039;-60
2022/05/25 02:54:55;;;;;;;8.63;3.13;;;9.10;99.90;;;;;;4893038;29;20024;-59
2022/05/25 02:57:21;;;;;;;11.55;3.50;;;9.00;99.90;;;;;;4892299;29;20452;-59
2022/05/25 02:59:47;;;;;;;9.18;3.70;;;9.00;99.90;;;;;;4892921;29;20339;-59
2022/05/25 03:02:13;;;;;;;10.63;3.53;;;9.00;99.90;;;;;;4875449;29;20037;-59
2022/05/25 03:04:40;;;;;;;11.60;4.07;;;9.00;99.90;;;;;;4890721;29;20041;-59
2022/05/25 03:07:06;;;;;;;9.20;3.85;;;8.90;99.90;;;;;;4891431;29;20056;-59
2022/05/25 03:09:34;;;;;;;8.75;3.42;;;8.80;99.90;;;;;;4895757;29;20040;-59
2022/05/25 03:12:02;;;;;;;10.18;3.70;;;8.60;99.90;;;;;;4893317;29;20147;-59
2022/05/25 03:14:28;;;;;;;12.35;4.13;;;8.50;99.90;;;;;;4892404;29;20021;-59
2022/05/25 03:16:54;;;;;;;11.07;4.00;;;8.30;99.90;;;;;;4896640;29;20272;-59
2022/05/25 03:19:19;;;;;;;13.90;4.65;;;8.40;99.90;;;;;;4892579;29;20040;-59
2022/05/25 03:21:45;;;;;;;12.38;3.97;;;8.20;99.90;;;;;;4890904;29;20056;-59
2022/05/25 03:24:13;;;;;;;8.98;4.00;;;8.20;99.90;;;;;;4891647;29;20409;-60
2022/05/25 03:26:39;;;;;;;9.50;4.18;;;8.10;99.90;;;;;;4892120;29;20021;-59
2022/05/25 03:29:05;;;;;;;9.50;4.47;;;8.20;99.90;;;;;;4891317;29;20370;-59
2022/05/25 03:31:31;;;;;;;8.98;4.40;;;8.10;99.90;;;;;;4891760;29;20138;-59
2022/05/25 03:33:56;;;;;;;13.38;4.95;;;8.20;99.90;;;;;;4888904;29;20507;-58
2022/05/25 03:36:22;;;;;;;12.02;5.13;;;8.40;99.90;;;;;;4891107;29;20464;-58
2022/05/25 03:38:48;;;;;;;11.13;4.50;;;8.40;99.90;;;;;;4879844;29;20036;-59
2022/05/25 03:41:17;;;;;;;11.65;5.28;;;8.40;99.90;;;;;;4890560;29;20087;-58
2022/05/25 03:43:43;;;;;;;9.80;4.93;;;8.50;99.90;;;;;;4892071;29;20400;-59
2022/05/25 03:46:09;;;;;;;11.90;5.63;;;8.30;99.90;;;;;;4875486;29;20037;-58
2022/05/25 03:48:34;;;;;;;10.50;4.88;;;8.30;99.90;;;;;;4894774;29;20541;-59
2022/05/25 03:51:00;;;;;;;11.70;5.20;;;8.30;99.90;;;;;;4894574;29;20029;-58
2022/05/25 03:53:26;;;;;;;18.65;5.50;;;8.40;99.90;;;;;;4891506;29;20035;-59
2022/05/25 03:55:52;;;;;;;11.88;5.20;;;8.30;99.90;;;;;;4892319;29;20108;-59
2022/05/25 03:58:18;;;;;;;12.73;5.38;;;8.30;99.90;;;;;;4892947;29;20116;-59
2022/05/25 04:00:44;;;;;;;12.88;5.40;;;8.50;99.90;;;;;;4891552;29;20044;-59
2022/05/25 04:03:15;;;;;;;13.02;4.75;;;8.50;99.90;;;;;;4888828;29;20048;-58
2022/05/25 04:05:42;;;;;;;10.88;5.28;;;8.60;99.90;;;;;;4891846;29;20037;-59
2022/05/25 04:08:08;;;;;;;11.20;5.07;;;8.80;99.90;;;;;;4890891;29;20029;-58
2022/05/25 04:10:34;;;;;;;14.05;5.85;;;8.90;99.90;;;;;;4891951;29;20021;-59
2022/05/25 04:13:01;;;;;;;11.95;5.50;;;9.10;99.90;;;;;;4891364;29;20066;-58
2022/05/25 04:15:29;;;;;;;14.25;5.57;;;9.10;99.90;;;;;;4891048;29;20095;-59
2022/05/25 04:17:55;;;;;;;15.20;6.78;;;9.20;99.90;;;;;;4893077;29;20396;-59
2022/05/25 04:20:23;;;;;;;13.70;5.93;;;9.60;99.90;;;;;;4889674;29;20032;-59
2022/05/25 04:22:50;;;;;;;13.07;6.00;;;9.80;99.90;;;;;;4891400;29;20571;-59
2022/05/25 04:25:17;;;;;;;14.05;5.80;;;10.00;99.90;;;;;;4891351;29;20431;-59
2022/05/25 04:27:44;;;;;;;15.95;6.68;;;10.10;99.90;;;;;;4892993;29;20033;-58
2022/05/25 04:30:13;;;;;;;14.20;5.90;;;10.20;99.90;;;;;;4893625;29;20063;-59
2022/05/25 04:32:39;;;;;;;12.68;5.50;;;10.40;99.90;;;;;;4891028;29;20032;-59
2022/05/25 04:35:05;;;;;;;15.23;5.68;;;10.50;99.90;;;;;;4891552;29;20365;-58
2022/05/25 04:37:49;;;;;;;11.30;4.72;;;10.60;99.90;;;;;;4892301;29;20389;-59
2022/05/25 04:40:22;;;;;;;12.88;5.18;;;10.70;99.90;;;;;;4891158;29;20437;-59
2022/05/25 04:42:50;;;;;;;12.82;5.90;;;10.80;99.90;;;;;;4891253;29;20032;-59
2022/05/25 04:45:16;;;;;;;15.27;5.68;;;10.90;99.90;;;;;;4890456;29;20119;-59
2022/05/25 04:47:42;;;;;;;14.57;5.68;;;10.90;99.90;;;;;;4887349;29;20324;-59
2022/05/25 04:50:09;;;;;;;16.60;5.70;;;11.00;99.90;;;;;;4890494;29;20455;-59
2022/05/25 04:52:36;;;;;;;13.63;5.63;;;11.00;99.90;;;;;;4891121;29;20029;-58
2022/05/25 04:55:03;;;;;;;16.60;6.35;;;11.10;99.90;;;;;;4891168;29;20031;-59
2022/05/25 04:57:28;;;;;;;11.27;5.13;;;11.20;99.90;;;;;;4890844;29;20037;-58
2022/05/25 04:59:59;;;;;;;12.20;5.85;;;11.20;99.90;;;;;;4891209;29;20115;-58
2022/05/25 05:02:26;;;;;;;11.13;4.90;;;11.30;99.90;;;;;;4885401;29;20559;-58
2022/05/25 05:04:51;;;;;;;11.38;5.60;;;11.30;99.90;;;;;;4887825;29;21371;-58
2022/05/25 05:07:18;;;;;;;11.43;4.78;;;11.30;99.90;;;;;;4890734;29;20036;-58
2022/05/25 05:09:45;;;;;;;13.52;5.65;;;11.40;99.90;;;;;;4893687;29;20025;-58
2022/05/25 05:12:13;;;;;;;11.20;5.47;;;11.50;99.90;;;;;;4893081;29;20032;-59
2022/05/25 05:14:39;;;;;;;15.55;4.72;;;11.50;99.90;;;;;;4891240;29;20039;-58
2022/05/25 05:17:07;;;;;;;12.07;4.80;;;11.50;99.90;;;;;;4891047;29;20111;-59
2022/05/25 05:19:33;;;;;;;11.73;5.43;;;11.60;99.90;;;;;;4868177;29;20033;-59
2022/05/25 05:21:59;;;;;;;13.55;5.53;;;11.60;99.90;;;;;;4890586;29;20128;-59
2022/05/25 05:24:29;;;;;;;10.50;4.90;;;11.60;99.90;;;;;;4890249;29;20124;-58
2022/05/25 05:26:55;;;;;;;13.73;5.60;;;11.70;99.90;;;;;;4891040;29;20393;-59
2022/05/25 05:29:22;;;;;;;11.80;5.10;;;11.70;99.90;;;;;;4890308;29;20035;-58
2022/05/25 05:31:48;;;;;;;11.93;5.15;;;11.80;99.90;;;;;;4890541;29;20040;-59
2022/05/25 05:34:14;;;;;;;13.95;5.22;;;11.80;99.90;;;;;;4888164;29;20076;-59
2022/05/25 05:36:50;;;;;;;11.38;4.82;;;11.90;99.90;;;;;;4890682;29;20536;-59
2022/05/25 05:39:18;;;;;;;12.13;4.97;;;11.90;99.90;;;;;;4890468;29;20480;-59
2022/05/25 05:42:04;;;;;;;10.68;4.80;;;12.00;99.90;;;;;;4890708;29;20032;-59
2022/05/25 05:44:36;;;;;;;11.68;5.15;;;12.00;99.90;;;;;;4888629;29;20069;-59
2022/05/25 05:47:06;;;;;;;13.25;4.60;;;12.10;99.90;;;;;;4887072;29;20033;-59
2022/05/25 05:49:32;;;;;;;;;;;12.10;99.90;;;;;;4892860;29;20486;-58
2022/05/25 05:51:59;;;;;;;10.38;4.60;;;12.20;99.90;;;;;;4893658;29;19959;-59
2022/05/25 05:54:24;;;;;;;10.70;4.18;;;12.30;99.90;;;;;;4890715;29;20409;-59
2022/05/25 05:56:50;;;;;;;11.57;5.00;;;12.30;99.90;;;;;;4891407;29;20404;-59
2022/05/25 05:59:15;;;;;;;12.43;4.38;;;12.30;99.90;;;;;;4895039;29;20037;-59
2022/05/25 06:01:42;;;;;;;14.68;5.15;;;12.30;99.90;;;;;;4893499;29;20092;-58
2022/05/25 06:04:09;;;;;;;12.05;5.38;;;12.40;99.90;;;;;;4891712;29;20100;-59
2022/05/25 06:06:34;;;;;;;12.10;4.53;;;12.50;99.90;;;;;;4893615;29;20036;-59
2022/05/25 06:09:01;;;;;;;13.05;4.32;;;12.60;99.90;;;;;;4893630;29;20025;-58
2022/05/25 06:11:26;;;;;;;11.90;5.13;;;12.50;99.90;;;;;;4893181;29;20025;-59
2022/05/25 06:13:52;;;;;;;13.73;4.95;;;12.60;99.90;;;;;;4893951;29;20029;-58
2022/05/25 06:21:46;;;;;;;9.20;4.22;;;12.80;99.90;;;;;;4890567;29;20099;-58
2022/05/25 06:24:12;;;;;;;8.65;3.67;;;12.80;99.90;;;;;;4892800;29;20048;-58
2022/05/25 06:26:37;;;;;;;9.20;3.75;;;12.90;99.90;;;;;;4893094;29;20476;-59
2022/05/25 06:29:03;;;;;;;9.80;3.35;;;13.00;99.90;;;;;;4893963;29;20102;-58
2022/05/25 06:31:30;;;;;;;11.07;3.58;;;13.20;99.90;;;;;;4895339;29;20480;-59
2022/05/25 06:33:56;;;;;;;8.85;3.00;;;13.20;99.90;;;;;;4892984;29;20021;-58
2022/05/25 06:36:27;;;;;;;8.85;2.75;;;13.30;99.90;;;;;;4888603;29;20032;-59
2022/05/25 06:38:53;;;;;;;6.95;2.40;;;13.40;99.90;;;;;;4893594;29;20032;-58
2022/05/25 06:41:19;;;;;;;6.95;2.58;;;13.40;99.90;;;;;;4893129;29;20024;-58
2022/05/25 06:43:45;;;;;;;6.50;2.08;;;13.50;99.90;;;;;;4875613;29;20465;-58
2022/05/25 06:46:12;;;;;;;8.90;2.58;;;13.60;99.90;;;;;;4892631;29;20115;-59
2022/05/25 06:48:39;;;;;;;7.63;2.28;;;13.60;99.90;;;;;;4892417;29;20036;-59
2022/05/25 06:51:13;;;;;;;9.88;2.88;;;13.60;99.90;;;;;;4888563;29;20108;-58
2022/05/25 06:53:39;;;;;;;11.30;2.60;;;13.60;99.90;;;;;;4892666;29;20099;-58
2022/05/25 06:56:05;;;;;;;10.70;2.35;;;13.80;99.90;;;;;;4892440;29;20025;-59
2022/05/25 06:58:31;;;;;;;6.63;2.20;;;13.70;99.90;;;;;;4892198;29;20421;-58
2022/05/25 07:00:57;;;;;;;10.23;2.05;;;13.70;99.90;;;;;;4892400;29;20032;-58
2022/05/25 07:03:22;;;;;;;6.93;1.67;;;13.70;99.90;;;;;;4889995;29;20444;-59
2022/05/25 07:05:48;;;;;;;6.13;2.20;;;13.80;99.90;;;;;;4875415;29;20072;-59
2022/05/25 07:08:14;;;;;;;5.00;1.80;;;13.70;99.90;;;;;;4891468;29;20040;-59
2022/05/25 07:10:45;;;;;;;4.38;1.73;;;13.90;99.90;;;;;;4894124;29;20032;-59
2022/05/25 07:13:12;;;;;;;6.97;1.77;;;13.80;99.90;;;;;;4895309;29;20096;-59
2022/05/25 07:15:37;;;;;;;6.70;1.88;;;14.00;99.90;;;;;;4892411;29;20485;-59
2022/05/25 07:18:03;;;;;;;8.60;2.00;;;13.90;99.90;;;;;;4892742;29;20035;-59
2022/05/25 07:20:29;;;;;;;5.25;1.70;;;14.10;99.90;;;;;;4892804;29;20451;-58
2022/05/25 07:22:55;;;;;;;4.32;1.50;;;14.30;99.90;;;;;;4892117;29;20036;-58
2022/05/25 07:25:21;;;;;;;4.38;1.20;;;14.40;99.90;;;;;;4891413;29;20044;-59
2022/05/25 07:27:47;;;;;;;10.90;1.80;;;14.40;99.90;;;;;;4891845;29;20040;-59
2022/05/25 07:30:13;;;;;;;7.32;1.58;;;14.40;99.90;;;;;;4892080;29;20043;-59
2022/05/25 07:32:40;;;;;;;6.45;1.42;;;14.50;99.90;;;;;;4890203;29;20091;-59
2022/05/25 07:35:08;;;;;;;5.75;1.45;;;14.30;99.90;;;;;;4891511;29;20043;-59
2022/05/25 07:37:38;;;;;;;5.15;1.50;;;14.50;99.90;;;;;;4890971;29;20037;-58
2022/05/25 07:40:22;;;;;;;6.53;1.60;;;14.60;99.90;;;;;;4892100;29;20035;-59
2022/05/25 07:42:55;;;;;;;4.65;1.50;;;14.70;99.90;;;;;;4891422;29;20444;-59
2022/05/25 07:45:21;;;;;;;6.25;1.50;;;14.80;99.90;;;;;;4891016;29;20438;-58
2022/05/25 07:47:49;;;;;;;5.75;1.40;;;14.80;99.90;;;;;;4891362;29;20481;-59
2022/05/25 07:50:14;;;;;;;6.15;1.40;;;14.80;99.90;;;;;;4892039;29;20469;-58
2022/05/25 07:52:40;;;;;;;4.63;1.20;;;14.90;99.90;;;;;;4894018;29;20039;-59
2022/05/25 07:55:08;;;;;;;4.13;1.40;;;15.00;99.90;;;;;;4894236;29;20077;-58
2022/05/25 07:57:34;;;;;;;3.78;1.23;;;14.90;99.90;;;;;;4891031;29;20028;-58
2022/05/25 08:00:00;;;;;;;6.55;1.50;;;14.90;99.90;;;;;;4891662;29;20040;-59
2022/05/25 08:08:10;;;;;;;3.67;0.93;;;15.50;99.90;;;;;;4890080;29;20065;-58
2022/05/25 08:10:36;;;;;;;5.18;1.10;;;15.90;99.90;;;;;;4890517;29;20096;-59
2022/05/25 08:13:03;;;;;;;5.38;1.02;;;16.30;99.90;;;;;;4891293;29;20480;-59
2022/05/25 08:15:29;;;;;;;4.28;1.00;;;16.40;99.90;;;;;;4890442;29;20544;-59
2022/05/25 08:17:55;;;;;;;3.35;1.00;;;16.70;99.90;;;;;;4890102;29;20120;-59
2022/05/25 08:20:21;;;;;;;4.65;1.00;;;16.90;99.90;;;;;;4889660;29;20040;-59
2022/05/25 08:22:48;;;;;;;3.50;0.70;;;17.40;99.70;;;;;;4891351;29;20043;-59
2022/05/25 08:25:16;;;;;;;2.28;0.88;;;17.80;98.40;;;;;;4890960;29;20024;-59
2022/05/25 08:27:42;;;;;;;1.60;0.82;;;18.20;97.70;;;;;;4890537;29;20040;-58
2022/05/25 08:30:12;;;;;;;3.13;0.75;;;18.40;97.00;;;;;;4890966;29;20033;-59
2022/05/25 08:32:38;;;;;;;3.60;0.90;;;18.00;95.10;;;;;;4887467;29;20032;-59
2022/05/25 08:35:04;;;;;;;2.10;0.88;;;18.00;95.50;;;;;;4893773;29;20040;-59
2022/05/25 08:37:30;;;;;;;2.72;1.00;;;18.10;96.40;;;;;;4890283;29;20036;-58
2022/05/25 08:39:56;;;;;;;3.80;0.88;;;18.30;95.60;;;;;;4873829;29;20040;-59
2022/05/25 08:42:25;;;;;;;2.65;0.90;;;18.30;95.90;;;;;;4891569;29;20032;-59
2022/05/25 08:44:53;;;;;;;2.60;0.88;;;18.30;96.90;;;;;;4891146;29;20370;-59
2022/05/25 08:47:19;;;;;;;4.07;1.00;;;18.80;95.80;;;;;;4889937;29;20461;-58
2022/05/25 08:49:47;;;;;;;3.38;1.00;;;19.00;95.10;;;;;;4890522;29;20037;-58
2022/05/25 08:52:39;;;;;;;5.25;1.17;;;19.00;94.70;;;;;;4890421;29;20044;-59
2022/05/25 08:55:09;;;;;;;3.35;1.10;;;18.90;95.00;;;;;;4888394;29;20028;-59
2022/05/25 08:57:49;;;;;;;1.05;0.80;;;18.70;94.40;;;;;;4890333;29;20500;-60
2022/05/25 09:00:18;;;;;;;3.13;1.00;;;19.10;94.30;;;;;;4887847;29;20051;-58
2022/05/25 09:03:04;;;;;;;3.20;1.13;;;18.80;93.90;;;;;;4888579;29;20565;-58
2022/05/25 09:05:34;;;;;;;2.45;0.90;;;19.10;93.30;;;;;;4887092;29;20350;-58
2022/05/25 09:08:04;;;;;;;2.78;1.05;;;18.80;93.50;;;;;;4890412;29;20124;-58
2022/05/25 09:10:35;;;;;;;6.03;1.10;;;18.40;95.00;;;;;;4873679;29;20033;-58
2022/05/25 09:13:11;;;;;;;9.27;1.58;;;18.90;94.30;;;;;;4872721;29;20033;-59
2022/05/25 09:16:15;;;;;;;3.47;1.10;;;19.10;94.10;;;;;;4892757;29;20393;-58
2022/05/25 09:18:33;;;;;;;5.32;0.90;;;19.80;93.10;;;;;;4890879;29;20414;-59
2022/05/25 09:21:03;;;;;;;2.72;0.90;;;20.30;92.90;;;;;;4890075;29;20475;-59
2022/05/25 09:23:29;;;;;;;3.90;1.00;;;20.70;91.90;;;;;;4888301;29;20064;-59
2022/05/25 09:25:56;;;;;;;2.22;0.88;;;20.80;92.10;;;;;;4890571;29;20071;-59
2022/05/25 09:28:38;;;;;;;2.80;1.00;;;20.40;90.80;;;;;;4889867;29;20455;-59
2022/05/25 09:31:06;;;;;;;3.80;0.93;;;19.60;91.40;;;;;;4887250;29;20033;-58
2022/05/25 09:33:38;;;;;;;8.77;2.05;;;20.10;92.30;;;;;;4882456;29;20047;-59
2022/05/25 09:36:17;;;;;;;3.63;1.00;;;20.50;92.70;;;;;;4893527;29;20033;-59
2022/05/25 09:39:05;;;;;;;4.65;1.23;;;21.00;91.10;;;;;;4890543;29;20068;-58
2022/05/25 09:41:32;;;;;;;2.95;0.88;;;20.60;90.70;;;;;;4890114;29;20464;-59
2022/05/25 09:44:02;;;;;;;2.35;0.90;;;21.00;90.60;;;;;;4893987;29;20032;-59
2022/05/25 09:46:37;;;;;;;1.88;0.98;;;20.80;87.70;;;;;;4892947;29;20063;-59
2022/05/25 09:49:08;;;;;;;9.68;4.70;;;20.20;89.50;;;;;;4890401;29;20092;-58
2022/05/25 09:51:44;;;;;;;5.28;1.00;;;20.80;90.40;;;;;;4892725;29;20029;-59
2022/05/25 09:54:19;;;;;;;4.30;0.95;;;21.00;89.30;;;;;;4896562;29;20060;-59
2022/05/25 09:57:32;;;;;;;3.83;0.93;;;19.70;88.80;;;;;;4895700;29;20029;-59
2022/05/25 10:00:03;;;;;;;7.28;0.90;;;19.70;89.80;;;;;;4887020;29;20461;-59
2022/05/25 10:02:40;;;;;;;2.05;0.70;;;19.80;90.60;;;;;;4893540;29;20033;-58
2022/05/25 10:05:23;;;;;;;1.98;0.90;;;20.30;87.70;;;;;;4893947;29;20468;-58
2022/05/25 10:07:55;;;;;;;1.83;0.80;;;20.90;87.10;;;;;;4891751;29;20028;-58
2022/05/25 10:10:32;;;;;;;4.20;1.00;;;21.20;85.70;;;;;;4893449;29;20724;-59
2022/05/25 10:13:26;;;;;;;2.92;0.95;;;20.90;86.60;;;;;;4893690;29;20033;-59
2022/05/25 10:15:52;;;;;;;2.35;1.00;;;21.60;84.70;;;;;;4893778;29;20047;-59
2022/05/25 10:18:38;;;;;;;3.25;1.10;;;20.90;84.30;;;;;;4896626;29;20083;-59
2022/05/25 10:21:09;;;;;;;2.10;0.80;;;21.50;83.30;;;;;;4890142;29;20040;-59
2022/05/25 10:23:42;;;;;;;1.25;0.70;;;21.10;85.80;;;;;;4892659;29;20028;-58
2022/05/25 10:26:17;;;;;;;1.80;0.88;;;21.10;83.70;;;;;;4890499;29;20040;-58
2022/05/25 10:28:57;;;;;;;1.98;0.80;;;21.60;85.20;;;;;;4892767;29;20040;-59
2022/05/25 10:37:08;;;;;;;2.67;0.90;;;23.30;80.70;;;;;;4893573;29;20129;-60
2022/05/25 10:39:54;;;;;;;5.35;0.90;;;22.20;79.40;;;;;;4892484;29;20512;-59
2022/05/25 10:42:22;;;;;;;2.45;1.00;;;22.30;82.00;;;;;;4890086;29;20025;-58
2022/05/25 10:44:57;;;;;;;3.05;1.10;;;22.10;79.20;;;;;;4893761;29;20032;-59
2022/05/25 10:47:44;;;;;;;2.65;0.80;;;22.70;79.10;;;;;;4892721;29;20614;-59
2022/05/25 10:50:30;;;;;;;2.22;1.00;;;21.80;75.80;;;;;;4893213;29;20039;-59
2022/05/25 10:53:27;;;;;;;2.35;0.88;;;22.10;79.90;;;;;;4891585;29;20541;-59
2022/05/25 10:56:11;;;;;;;2.45;0.90;;;22.10;78.40;;;;;;4892940;29;20524;-58
2022/05/25 10:59:27;;;;;;;3.40;1.10;;;22.30;78.50;;;;;;4890944;29;20116;-59
2022/05/25 11:01:56;;;;;;;2.75;0.98;;;22.90;77.00;;;;;;4891076;29;20378;-59
2022/05/25 11:05:03;;;;;;;1.98;0.80;;;23.80;77.20;;;;;;4890771;29;20093;-59
2022/05/25 11:07:34;;;;;;;2.83;0.93;;;22.60;74.90;;;;;;4892088;29;20029;-59
2022/05/25 11:10:12;;;;;;;11.73;4.32;;;21.80;77.80;;;;;;4892795;29;20501;-59
2022/05/25 11:12:52;;;;;;;3.40;1.15;;;21.90;80.50;;;;;;4892155;29;20028;-59
2022/05/25 11:15:59;;;;;;;4.70;0.98;;;22.30;77.00;;;;;;4895135;29;20032;-59
2022/05/25 11:18:34;;;;;;;2.75;1.00;;;22.30;76.50;;;;;;4896095;29;20064;-59
2022/05/25 11:21:17;;;;;;;4.13;0.93;;;21.10;78.40;;;;;;4891729;29;20475;-58
2022/05/25 11:23:53;;;;;;;6.30;0.90;;;21.90;79.10;;;;;;4890897;29;20037;-59
2022/05/25 11:26:41;;;;;;;3.35;0.95;;;21.30;78.40;;;;;;4893196;29;20064;-59
2022/05/25 11:29:55;;;;;;;1.48;0.70;;;20.50;80.90;;;;;;4892168;29;20110;-59
2022/05/25 11:33:05;;;;;;;3.42;0.80;;;21.20;79.10;;;;;;4892570;29;20063;-61
2022/05/25 11:35:54;;;;;;;4.80;0.90;;;21.20;79.50;;;;;;4890601;29;20128;-59
2022/05/25 11:38:32;;;;;;;3.08;0.90;;;21.40;80.90;;;;;;4889584;29;20404;-58
2022/05/25 11:41:31;;;;;;;1.92;0.82;;;21.10;77.50;;;;;;4892247;29;20029;-58
2022/05/25 11:44:20;;;;;;;3.03;0.77;;;22.00;77.40;;;;;;4892248;29;20032;-59
2022/05/25 11:46:48;;;;;;;1.50;0.77;;;21.90;75.80;;;;;;4887887;29;20060;-58
2022/05/25 11:49:35;;;;;;;4.50;0.80;;;20.80;78.20;;;;;;4892160;29;20028;-58
2022/05/25 11:52:37;;;;;;;3.20;0.90;;;20.90;79.30;;;;;;4889204;29;20063;-59
2022/05/25 11:55:26;;;;;;;2.67;0.90;;;21.50;77.90;;;;;;4890725;29;20158;-59
2022/05/25 11:58:18;;;;;;;5.50;0.98;;;21.90;77.00;;;;;;4893613;29;20323;-59
2022/05/25 12:01:01;;;;;;;2.78;0.75;;;22.90;74.10;;;;;;4889463;29;20127;-59
2022/05/25 12:03:44;;;;;;;1.70;0.60;;;21.90;74.00;;;;;;4886645;29;20052;-59
2022/05/25 12:06:46;;;;;;;3.70;1.00;;;20.80;74.30;;;;;;4892913;29;20179;-58
2022/05/25 12:09:33;;;;;;;3.75;1.08;;;20.10;77.80;;;;;;4887865;29;20511;-59
2022/05/25 12:12:20;;;;;;;7.22;1.75;;;20.40;76.10;;;;;;4888217;29;20413;-59
2022/05/25 12:14:52;;;;;;;46.97;17.77;;;23.00;72.40;;;;;;4880763;29;20039;-58
2022/05/25 12:17:27;;;;;;;2.60;0.75;;;23.50;72.30;;;;;;4877783;29;20023;-58
2022/05/25 12:19:56;;;;;;;2.78;1.10;;;24.00;71.50;;;;;;4890947;29;20398;-58
2022/05/25 12:22:30;;;;;;;4.63;0.80;;;24.50;71.30;;;;;;4887885;29;20084;-59
2022/05/25 12:25:01;;;;;;;1.85;0.70;;;25.70;72.50;;;;;;4890892;29;20036;-60
2022/05/25 12:27:33;;;;;;;4.18;0.82;;;25.90;66.20;;;;;;4891370;29;20481;-58
2022/05/25 12:30:07;;;;;;;3.05;0.93;;;25.30;69.20;;;;;;4889182;29;20338;-59
2022/05/25 12:32:35;;;;;;;1.80;0.70;;;24.10;65.40;;;;;;4890637;29;20084;-59
2022/05/25 12:35:01;;;;;;;2.83;0.90;;;24.00;68.60;;;;;;4889943;29;20051;-60
2022/05/25 12:37:30;;;;;;;3.53;0.95;;;23.40;70.00;;;;;;4893725;29;20054;-59
2022/05/25 12:39:59;;;;;;;6.80;2.47;;;22.80;70.20;;;;;;4889883;29;20549;-59
2022/05/25 12:42:25;;;;;;;46.35;12.40;;;22.70;71.20;;;;;;4890633;29;20033;-60
2022/05/25 12:50:43;;;;;;;30.10;10.82;;;23.90;67.90;;;;;;4890156;29;20036;-60
2022/05/25 12:53:32;;;;;;;2.08;0.70;;;25.20;66.40;;;;;;4890558;29;20035;-60
2022/05/25 12:56:07;;;;;;;19.27;6.43;;;25.00;65.60;;;;;;4890758;29;20513;-58
2022/05/25 12:58:41;;;;;;;2.17;0.80;;;24.00;65.50;;;;;;4887813;29;20036;-59
2022/05/25 13:01:21;;;;;;;4.30;0.90;;;22.70;67.70;;;;;;4890755;29;20470;-59
2022/05/25 13:03:47;;;;;;;3.55;0.85;;;24.00;67.00;;;;;;4888014;29;20063;-58
2022/05/25 13:06:16;;;;;;;6.28;0.90;;;23.40;68.20;;;;;;4891948;29;20052;-59
2022/05/25 13:08:51;;;;;;;2.50;0.68;;;23.10;68.80;;;;;;4893810;29;20035;-58
2022/05/25 13:11:37;;;;;;;2.17;0.80;;;23.90;66.50;;;;;;4891148;29;20040;-59
2022/05/25 13:14:20;;;;;;;3.65;0.90;;;22.30;67.00;;;;;;4891022;29;20039;-59
2022/05/25 13:16:45;;;;;;;68.95;27.40;;;21.60;68.20;;;;;;4896248;29;20021;-58
2022/05/25 13:19:18;;;;;;;2.60;0.70;;;20.80;69.70;;;;;;4898091;29;20127;-59
2022/05/25 13:22:20;;;;;;;2.58;0.88;;;20.90;70.10;;;;;;4891339;29;20040;-60
2022/05/25 13:25:04;;;;;;;2.10;0.77;;;21.90;68.30;;;;;;4892150;29;20036;-59
2022/05/25 13:27:53;;;;;;;0.98;0.70;;;21.60;69.00;;;;;;4895674;29;20400;-59
2022/05/25 13:30:26;;;;;;;3.42;0.80;;;23.00;68.90;;;;;;4891664;29;20025;-60
2022/05/25 13:32:54;;;;;;;3.72;0.90;;;25.20;67.30;;;;;;4891806;29;20028;-59
2022/05/25 13:35:22;;;;;;;4.70;1.15;;;25.20;66.10;;;;;;4894128;29;20519;-59
2022/05/25 13:38:11;;;;;;;3.42;0.93;;;25.10;65.70;;;;;;4891394;29;20060;-59
2022/05/25 13:40:47;;;;;;;3.55;0.80;;;25.60;65.90;;;;;;4893255;29;20493;-59